Home > Products > Valid Products > TAF

000
FTUS42 KMFL 221603 AAB
TAFMIA
TAF AMD
KMIA 221603Z 2216/2312 16010KT P6SM SCT050 BKN250
     FM230000 16005KT P6SM SCT050 BKN250=



000
FTUS42 KMFL 221603 AAB
TAFMIA
TAF AMD
KMIA 221603Z 2216/2312 16010KT P6SM SCT050 BKN250
     FM230000 16005KT P6SM SCT050 BKN250=



000
FTUS42 KMFL 221436 AAA
TAFPBI
TAF AMD
KPBI 221436Z 2215/2312 17009KT P6SM BKN080 BKN250
     FM230000 15006KT P6SM SCT050 BKN250=



000
FTUS42 KMFL 221436 AAA
TAFFLL
TAF AMD
KFLL 221436Z 2215/2312 17007KT P6SM SCT070 BKN250
     FM230000 16006KT P6SM SCT050 BKN250=



000
FTUS42 KMFL 221436 AAA
TAFAPF
TAF AMD
KAPF 221436Z 2215/2312 16009KT P6SM BKN250
     FM221800 19010KT P6SM BKN035 BKN250
     FM222300 11003KT P6SM SCT035 BKN250=



000
FTUS42 KMFL 221436 AAA
TAFAPF
TAF AMD
KAPF 221436Z 2215/2312 16009KT P6SM BKN250
     FM221800 19010KT P6SM BKN035 BKN250
     FM222300 11003KT P6SM SCT035 BKN250=



000
FTUS42 KMFL 221436 AAA
TAFMIA
TAF AMD
KMIA 221436Z 2215/2312 16007KT P6SM SCT090 BKN250
     FM230000 16006KT P6SM SCT050 BKN250=



000
FTUS42 KMFL 221436 AAA
TAFMIA
TAF AMD
KMIA 221436Z 2215/2312 16007KT P6SM SCT090 BKN250
     FM230000 16006KT P6SM SCT050 BKN250=



000
FTUS42 KMFL 221436 AAA
TAFFLL
TAF AMD
KFLL 221436Z 2215/2312 17007KT P6SM SCT070 BKN250
     FM230000 16006KT P6SM SCT050 BKN250=



000
FTUS42 KMFL 221436 AAA
TAFPBI
TAF AMD
KPBI 221436Z 2215/2312 17009KT P6SM BKN080 BKN250
     FM230000 15006KT P6SM SCT050 BKN250=



000
FTUS42 KMFL 221138
TAFFLL
TAF
KFLL 221138Z 2212/2312 12003KT P6SM FEW030 FEW120 BKN250
     FM221400 17010KT P6SM BKN050 BKN250
     FM230000 16006KT P6SM SCT050 BKN250=



000
FTUS42 KMFL 221138
TAFPBI
TAF
KPBI 221138Z 2212/2312 00000KT P6SM FEW060 BKN250
     FM221400 17012KT P6SM BKN050 BKN250
     FM230000 15006KT P6SM SCT050 BKN250=



000
FTUS42 KMFL 221138
TAFAPF
TAF
KAPF 221138Z 2212/2312 13006KT P6SM SCT250
     FM221400 17010KT P6SM BKN035 BKN250
     FM221800 19010KT P6SM BKN035 BKN250
     FM222300 11003KT P6SM SCT035 BKN250=



000
FTUS42 KMFL 221138
TAFAPF
TAF
KAPF 221138Z 2212/2312 13006KT P6SM SCT250
     FM221400 17010KT P6SM BKN035 BKN250
     FM221800 19010KT P6SM BKN035 BKN250
     FM222300 11003KT P6SM SCT035 BKN250=



000
FTUS42 KMFL 221138
TAFPBI
TAF
KPBI 221138Z 2212/2312 00000KT P6SM FEW060 BKN250
     FM221400 17012KT P6SM BKN050 BKN250
     FM230000 15006KT P6SM SCT050 BKN250=



000
FTUS42 KMFL 221138
TAFMIA
TAF
KMIA 221138Z 2212/2312 00000KT P6SM SCT090 BKN200
     FM221400 17010KT P6SM BKN050 BKN250
     FM230000 16006KT P6SM SCT050 BKN250=



000
FTUS42 KMFL 221138
TAFFLL
TAF
KFLL 221138Z 2212/2312 12003KT P6SM FEW030 FEW120 BKN250
     FM221400 17010KT P6SM BKN050 BKN250
     FM230000 16006KT P6SM SCT050 BKN250=



000
FTUS42 KMFL 221138
TAFMIA
TAF
KMIA 221138Z 2212/2312 00000KT P6SM SCT090 BKN200
     FM221400 17010KT P6SM BKN050 BKN250
     FM230000 16006KT P6SM SCT050 BKN250=



000
FTUS42 KMFL 220916 AAA
TAFFLL
TAF AMD
KFLL 220916Z 2209/2306 33003KT P6SM FEW030 BKN250
     FM221400 17010KT P6SM BKN050 BKN250
     FM230000 16006KT P6SM SCT050 BKN250=



000
FTUS42 KMFL 220916 AAA
TAFPBI
TAF AMD
KPBI 220916Z 2209/2306 00000KT P6SM FEW100 SCT110 BKN250
     FM221400 19010KT P6SM BKN050 BKN250
     FM221900 17012KT P6SM BKN050 BKN250
     FM230000 16006KT P6SM SCT050 BKN250=



000
FTUS42 KMFL 220916 AAA
TAFMIA
TAF AMD
KMIA 220916Z 2209/2306 15003KT P6SM BKN025 BKN140 OVC250
     FM221400 17010KT P6SM BKN050 BKN250
     FM230000 16006KT P6SM SCT050 BKN250=



000
FTUS42 KMFL 220916 AAA
TAFAPF
TAF AMD
KAPF 220916Z 2209/2306 13004KT P6SM BKN250
     FM221400 17010KT P6SM BKN035 BKN250
     FM221800 19010KT P6SM BKN035 BKN250
     FM222300 16003KT P6SM SCT035 BKN250=



000
FTUS42 KMFL 220916 AAA
TAFPBI
TAF AMD
KPBI 220916Z 2209/2306 00000KT P6SM FEW100 SCT110 BKN250
     FM221400 19010KT P6SM BKN050 BKN250
     FM221900 17012KT P6SM BKN050 BKN250
     FM230000 16006KT P6SM SCT050 BKN250=



000
FTUS42 KMFL 220916 AAA
TAFFLL
TAF AMD
KFLL 220916Z 2209/2306 33003KT P6SM FEW030 BKN250
     FM221400 17010KT P6SM BKN050 BKN250
     FM230000 16006KT P6SM SCT050 BKN250=



000
FTUS42 KMFL 220916 AAA
TAFMIA
TAF AMD
KMIA 220916Z 2209/2306 15003KT P6SM BKN025 BKN140 OVC250
     FM221400 17010KT P6SM BKN050 BKN250
     FM230000 16006KT P6SM SCT050 BKN250=



000
FTUS42 KMFL 220916 AAA
TAFAPF
TAF AMD
KAPF 220916Z 2209/2306 13004KT P6SM BKN250
     FM221400 17010KT P6SM BKN035 BKN250
     FM221800 19010KT P6SM BKN035 BKN250
     FM222300 16003KT P6SM SCT035 BKN250=



000
FTUS42 KMFL 220536
TAFAPF
TAF
KAPF 220536Z 2206/2306 12003KT P6SM FEW080 OVC250
     FM221400 17010KT P6SM BKN035 BKN250
     FM221800 19010KT P6SM BKN035 BKN250
     FM222300 16003KT P6SM SCT035 BKN250=



000
FTUS42 KMFL 220536
TAFPBI
TAF
KPBI 220536Z 2206/2306 14003KT P6SM FEW025 BKN100 BKN250
     FM221400 19010KT P6SM BKN050 BKN250
     FM221900 17012KT P6SM BKN050 BKN250
     FM230000 16006KT P6SM SCT050 BKN250=



000
FTUS42 KMFL 220536
TAFFLL
TAF
KFLL 220536Z 2206/2306 16004KT P6SM SCT030 BKN120 BKN250
     FM221400 17010KT P6SM BKN050 BKN250
     FM230000 16006KT P6SM SCT050 BKN250=



000
FTUS42 KMFL 220536
TAFPBI
TAF
KPBI 220536Z 2206/2306 14003KT P6SM FEW025 BKN100 BKN250
     FM221400 19010KT P6SM BKN050 BKN250
     FM221900 17012KT P6SM BKN050 BKN250
     FM230000 16006KT P6SM SCT050 BKN250=



000
FTUS42 KMFL 220536
TAFFLL
TAF
KFLL 220536Z 2206/2306 16004KT P6SM SCT030 BKN120 BKN250
     FM221400 17010KT P6SM BKN050 BKN250
     FM230000 16006KT P6SM SCT050 BKN250=



000
FTUS42 KMFL 220536
TAFMIA
TAF
KMIA 220536Z 2206/2306 13003KT P6SM FEW023 SCT120 BKN250
     FM221400 17010KT P6SM BKN050 BKN250
     FM230000 16006KT P6SM SCT050 BKN250=



000
FTUS42 KMFL 220536
TAFAPF
TAF
KAPF 220536Z 2206/2306 12003KT P6SM FEW080 OVC250
     FM221400 17010KT P6SM BKN035 BKN250
     FM221800 19010KT P6SM BKN035 BKN250
     FM222300 16003KT P6SM SCT035 BKN250=



000
FTUS42 KMFL 220536
TAFMIA
TAF
KMIA 220536Z 2206/2306 13003KT P6SM FEW023 SCT120 BKN250
     FM221400 17010KT P6SM BKN050 BKN250
     FM230000 16006KT P6SM SCT050 BKN250=



000
FTUS42 KMFL 220146 AAA
TAFAPF
TAF AMD
KAPF 220146Z 2202/2224 15006KT P6SM VCSH BKN100 BKN200
     FM221400 17010KT P6SM BKN035
     FM221700 19010KT P6SM BKN035=



000
FTUS42 KMFL 220146 AAA
TAFAPF
TAF AMD
KAPF 220146Z 2202/2224 15006KT P6SM VCSH BKN100 BKN200
     FM221400 17010KT P6SM BKN035
     FM221700 19010KT P6SM BKN035=



000
FTUS42 KMFL 220146 AAA
TAFAPF
TAF AMD
KAPF 220146Z 2202/2224 15006KT P6SM VCSH BKN100 BKN200
     FM221400 17010KT P6SM BKN035
     FM221700 19010KT P6SM BKN035=



000
FTUS42 KMFL 220146 AAA
TAFAPF
TAF AMD
KAPF 220146Z 2202/2224 15006KT P6SM VCSH BKN100 BKN200
     FM221400 17010KT P6SM BKN035
     FM221700 19010KT P6SM BKN035=



000
FTUS42 KMFL 212322
TAFPBI
TAF
KPBI 212322Z 2200/2224 15006KT P6SM SCT060 BKN200
     FM221400 18012KT P6SM BKN050=



000
FTUS42 KMFL 212322
TAFMIA
TAF
KMIA 212322Z 2200/2224 13005KT P6SM FEW035 BKN200
     FM221400 16012KT P6SM BKN035=



000
FTUS42 KMFL 212322
TAFAPF
TAF
KAPF 212322Z 2200/2224 16008KT P6SM FEW100 BKN200
     FM220200 VRB03KT P6SM SCT120 BKN200
     FM221400 17010KT P6SM BKN035
     FM221700 19010KT P6SM BKN035=



000
FTUS42 KMFL 212322
TAFAPF
TAF
KAPF 212322Z 2200/2224 16008KT P6SM FEW100 BKN200
     FM220200 VRB03KT P6SM SCT120 BKN200
     FM221400 17010KT P6SM BKN035
     FM221700 19010KT P6SM BKN035=



000
FTUS42 KMFL 212322
TAFFLL
TAF
KFLL 212322Z 2200/2224 14005KT P6SM FEW035 BKN200
     FM221400 17010KT P6SM BKN035=



000
FTUS42 KMFL 212322
TAFFLL
TAF
KFLL 212322Z 2200/2224 14005KT P6SM FEW035 BKN200
     FM221400 17010KT P6SM BKN035=



000
FTUS42 KMFL 212322
TAFPBI
TAF
KPBI 212322Z 2200/2224 15006KT P6SM SCT060 BKN200
     FM221400 18012KT P6SM BKN050=



000
FTUS42 KMFL 212322
TAFMIA
TAF
KMIA 212322Z 2200/2224 13005KT P6SM FEW035 BKN200
     FM221400 16012KT P6SM BKN035=



000
FTUS42 KMFL 212121 AAA
TAFMIA
TAF AMD
KMIA 212121Z 2121/2218 14010KT P6SM SCT035 BKN150 BKN250
     FM220000 14005KT P6SM FEW025 BKN050 BKN250
     FM221500 16010KT P6SM BKN025=



000
FTUS42 KMFL 212121 AAA
TAFAPF
TAF AMD
KAPF 212121Z 2121/2218 16010KT P6SM BKN060 BKN120
     FM220000 12005KT P6SM FEW025 OVC120
     FM221200 15006KT P6SM OVC050
     FM221400 16008KT P6SM OVC035=



000
FTUS42 KMFL 212121 AAA
TAFFLL
TAF AMD
KFLL 212121Z 2121/2218 15010KT P6SM FEW035 SCT120 BKN200
     FM220000 15005KT P6SM FEW025 BKN250
     FM221400 16010KT P6SM BKN050
     FM221500 17010KT P6SM BKN025=



000
FTUS42 KMFL 212121 AAA
TAFPBI
TAF AMD
KPBI 212121Z 2121/2218 15010KT P6SM SCT025 BKN250
     FM220000 17005KT P6SM FEW025 BKN050 BKN250
     FM221700 18012KT P6SM BKN050=



000
FTUS42 KMFL 212121 AAA
TAFFLL
TAF AMD
KFLL 212121Z 2121/2218 15010KT P6SM FEW035 SCT120 BKN200
     FM220000 15005KT P6SM FEW025 BKN250
     FM221400 16010KT P6SM BKN050
     FM221500 17010KT P6SM BKN025=



000
FTUS42 KMFL 211737
TAFMIA
TAF
KMIA 211737Z 2118/2218 14008KT P6SM SCT030 BKN140 BKN250
     FM220000 13004KT P6SM FEW025 BKN250
     FM221400 15007KT P6SM BKN050
     FM221500 16010KT P6SM BKN025=



000
FTUS42 KMFL 211737
TAFPBI
TAF
KPBI 211737Z 2118/2218 16008KT P6SM SCT035 BKN250
     FM220000 17004KT P6SM FEW025 BKN250
     FM221400 17007KT P6SM BKN050
     FM221700 18012KT P6SM BKN050=



000
FTUS42 KMFL 211737
TAFPBI
TAF
KPBI 211737Z 2118/2218 16008KT P6SM SCT035 BKN250
     FM220000 17004KT P6SM FEW025 BKN250
     FM221400 17007KT P6SM BKN050
     FM221700 18012KT P6SM BKN050=



000
FTUS42 KMFL 211737
TAFFLL
TAF
KFLL 211737Z 2118/2218 14009KT P6SM FEW035 SCT120 BKN250
     FM220000 15004KT P6SM FEW025 BKN250
     FM221400 16009KT P6SM BKN050
     FM221500 17010KT P6SM BKN025=



000
FTUS42 KMFL 211737
TAFAPF
TAF
KAPF 211737Z 2118/2218 14010KT P6SM SCT030 BKN140 BKN250
     FM220000 12005KT P6SM FEW025 OVC120
     FM221200 15006KT P6SM OVC050
     FM221400 16008KT P6SM OVC015=



000
FTUS42 KMFL 211737
TAFMIA
TAF
KMIA 211737Z 2118/2218 14008KT P6SM SCT030 BKN140 BKN250
     FM220000 13004KT P6SM FEW025 BKN250
     FM221400 15007KT P6SM BKN050
     FM221500 16010KT P6SM BKN025=



000
FTUS42 KMFL 211737
TAFAPF
TAF
KAPF 211737Z 2118/2218 14010KT P6SM SCT030 BKN140 BKN250
     FM220000 12005KT P6SM FEW025 OVC120
     FM221200 15006KT P6SM OVC050
     FM221400 16008KT P6SM OVC015=



000
FTUS42 KMFL 211737
TAFFLL
TAF
KFLL 211737Z 2118/2218 14009KT P6SM FEW035 SCT120 BKN250
     FM220000 15004KT P6SM FEW025 BKN250
     FM221400 16009KT P6SM BKN050
     FM221500 17010KT P6SM BKN025=



000
FTUS42 KMFL 211511 AAA
TAFFLL
TAF AMD
KFLL 211511Z 2115/2212 14008KT P6SM SCT035 SCT250
     FM220000 14004KT P6SM FEW025 BKN250=



000
FTUS42 KMFL 211511 AAA
TAFAPF
TAF AMD
KAPF 211511Z 2115/2212 16008KT P6SM SCT035 SCT100 SCT250
     FM220000 12003KT P6SM SCT100 BKN250=



000
FTUS42 KMFL 211511 AAA
TAFPBI
TAF AMD
KPBI 211511Z 2115/2212 15008KT P6SM SCT035 SCT250
     FM220000 14004KT P6SM FEW025 BKN250=



000
FTUS42 KMFL 211511 AAA
TAFMIA
TAF AMD
KMIA 211511Z 2115/2212 13008KT P6SM SCT035 SCT100 SCT250
     FM220000 13004KT P6SM FEW025 BKN250=



000
FTUS42 KMFL 211511 AAA
TAFPBI
TAF AMD
KPBI 211511Z 2115/2212 15008KT P6SM SCT035 SCT250
     FM220000 14004KT P6SM FEW025 BKN250=



000
FTUS42 KMFL 211511 AAA
TAFFLL
TAF AMD
KFLL 211511Z 2115/2212 14008KT P6SM SCT035 SCT250
     FM220000 14004KT P6SM FEW025 BKN250=



000
FTUS42 KMFL 211511 AAA
TAFMIA
TAF AMD
KMIA 211511Z 2115/2212 13008KT P6SM SCT035 SCT100 SCT250
     FM220000 13004KT P6SM FEW025 BKN250=



000
FTUS42 KMFL 211511 AAA
TAFAPF
TAF AMD
KAPF 211511Z 2115/2212 16008KT P6SM SCT035 SCT100 SCT250
     FM220000 12003KT P6SM SCT100 BKN250=



000
FTUS42 KMFL 211132
TAFPBI
TAF
KPBI 211132Z 2112/2212 34003KT P6SM FEW030 FEW250
     FM211400 15008KT P6SM SCT035 SCT250
     FM220000 14004KT P6SM FEW025 BKN250=



000
FTUS42 KMFL 211132
TAFFLL
TAF
KFLL 211132Z 2112/2212 00000KT P6SM FEW030 FEW200
     FM211400 14008KT P6SM SCT035 SCT250
     FM220000 14004KT P6SM FEW025 BKN250=



000
FTUS42 KMFL 211132
TAFMIA
TAF
KMIA 211132Z 2112/2212 00000KT P6SM SCT027 SCT250
     FM211400 13008KT P6SM SCT035 SCT250
     FM220000 13004KT P6SM FEW025 BKN250=



000
FTUS42 KMFL 211132
TAFMIA
TAF
KMIA 211132Z 2112/2212 00000KT P6SM SCT027 SCT250
     FM211400 13008KT P6SM SCT035 SCT250
     FM220000 13004KT P6SM FEW025 BKN250=



000
FTUS42 KMFL 211132
TAFPBI
TAF
KPBI 211132Z 2112/2212 34003KT P6SM FEW030 FEW250
     FM211400 15008KT P6SM SCT035 SCT250
     FM220000 14004KT P6SM FEW025 BKN250=



000
FTUS42 KMFL 211132
TAFFLL
TAF
KFLL 211132Z 2112/2212 00000KT P6SM FEW030 FEW200
     FM211400 14008KT P6SM SCT035 SCT250
     FM220000 14004KT P6SM FEW025 BKN250=



000
FTUS42 KMFL 211132
TAFAPF
TAF
KAPF 211132Z 2112/2212 06003KT P6SM SCT250
     FM211400 16008KT P6SM SCT035 SCT250
     FM220000 12003KT P6SM SCT100 BKN250=



000
FTUS42 KMFL 211132
TAFAPF
TAF
KAPF 211132Z 2112/2212 06003KT P6SM SCT250
     FM211400 16008KT P6SM SCT035 SCT250
     FM220000 12003KT P6SM SCT100 BKN250=



000
FTUS42 KMFL 210901 AAA
TAFPBI
TAF AMD
KPBI 210901Z 2109/2206 00000KT P6SM FEW030 FEW150
     FM211400 15008KT P6SM SCT035 SCT250
     FM220000 14004KT P6SM FEW025 BKN250=



000
FTUS42 KMFL 210901 AAA
TAFFLL
TAF AMD
KFLL 210901Z 2109/2206 00000KT P6SM FEW030
     FM211400 14008KT P6SM SCT035 SCT250
     FM220000 14004KT P6SM FEW025 BKN250=



000
FTUS42 KMFL 210901 AAA
TAFMIA
TAF AMD
KMIA 210901Z 2109/2206 00000KT P6SM FEW029 SCT250
     FM211400 13008KT P6SM SCT035 SCT250
     FM220000 13004KT P6SM FEW025 BKN250=



000
FTUS42 KMFL 210901 AAA
TAFAPF
TAF AMD
KAPF 210901Z 2109/2206 05003KT P6SM FEW250
     FM211400 16008KT P6SM SCT035 SCT250
     FM220000 12003KT P6SM SCT100 BKN250=



000
FTUS42 KMFL 210534
TAFMIA
TAF
KMIA 210534Z 2106/2206 00000KT P6SM FEW010 FEW030 SCT250
     FM211400 13008KT P6SM SCT035 SCT250
     FM220000 13004KT P6SM FEW025 BKN250=



000
FTUS42 KMFL 210534
TAFPBI
TAF
KPBI 210534Z 2106/2206 00000KT P6SM FEW030 SCT250
     FM211400 15008KT P6SM SCT035 SCT250
     FM220000 14004KT P6SM FEW025 BKN250=



000
FTUS42 KMFL 210534
TAFFLL
TAF
KFLL 210534Z 2106/2206 00000KT P6SM SCT025 SCT250
     FM211400 14008KT P6SM SCT035 SCT250
     FM220000 14004KT P6SM FEW025 BKN250=



000
FTUS42 KMFL 210534
TAFAPF
TAF
KAPF 210534Z 2106/2206 11004KT P6SM BKN250
     FM211400 16008KT P6SM SCT035 SCT250
     FM220000 12003KT P6SM SCT100 BKN250=



000
FTUS42 KMFL 210534
TAFAPF
TAF
KAPF 210534Z 2106/2206 11004KT P6SM BKN250
     FM211400 16008KT P6SM SCT035 SCT250
     FM220000 12003KT P6SM SCT100 BKN250=



000
FTUS42 KMFL 210534
TAFMIA
TAF
KMIA 210534Z 2106/2206 00000KT P6SM FEW010 FEW030 SCT250
     FM211400 13008KT P6SM SCT035 SCT250
     FM220000 13004KT P6SM FEW025 BKN250=



000
FTUS42 KMFL 210534
TAFFLL
TAF
KFLL 210534Z 2106/2206 00000KT P6SM SCT025 SCT250
     FM211400 14008KT P6SM SCT035 SCT250
     FM220000 14004KT P6SM FEW025 BKN250=



000
FTUS42 KMFL 210534
TAFPBI
TAF
KPBI 210534Z 2106/2206 00000KT P6SM FEW030 SCT250
     FM211400 15008KT P6SM SCT035 SCT250
     FM220000 14004KT P6SM FEW025 BKN250=



000
FTUS42 KMFL 210224 AAB
TAFAPF
TAF AMD
KAPF 210224Z 2102/2124 VRB04KT P6SM SCT250
     FM211400 13008KT P6SM SCT035 SCT250=



000
FTUS42 KMFL 210224 AAB
TAFFLL
TAF AMD
KFLL 210224Z 2102/2124 VRB03KT P6SM SCT250
     FM211400 14010KT P6SM SCT035 SCT250=



000
FTUS42 KMFL 210224 AAB
TAFPBI
TAF AMD
KPBI 210224Z 2102/2124 VRB03KT P6SM SCT250
     FM211400 14008KT P6SM SCT035 SCT250=



000
FTUS42 KMFL 210224 AAB
TAFMIA
TAF AMD
KMIA 210224Z 2102/2124 VRB03KT P6SM SCT250
     FM211400 13008KT P6SM SCT035 SCT250=



000
FTUS42 KMFL 210224 AAB
TAFAPF
TAF AMD
KAPF 210224Z 2102/2124 VRB04KT P6SM SCT250
     FM211400 13008KT P6SM SCT035 SCT250=



000
FTUS42 KMFL 210224 AAB
TAFPBI
TAF AMD
KPBI 210224Z 2102/2124 VRB03KT P6SM SCT250
     FM211400 14008KT P6SM SCT035 SCT250=



000
FTUS42 KMFL 210224 AAB
TAFMIA
TAF AMD
KMIA 210224Z 2102/2124 VRB03KT P6SM SCT250
     FM211400 13008KT P6SM SCT035 SCT250=



000
FTUS42 KMFL 210224 AAB
TAFFLL
TAF AMD
KFLL 210224Z 2102/2124 VRB03KT P6SM SCT250
     FM211400 14010KT P6SM SCT035 SCT250=



000
FTUS42 KMFL 210017 AAA
TAFAPF
TAF AMD
KAPF 210017Z 2100/2124 VRB04KT P6SM SCT250
     FM211400 13008KT P6SM SCT035 SCT250=



000
FTUS42 KMFL 210017 AAA
TAFPBI
TAF AMD
KPBI 210017Z 2100/2124 VRB03KT P6SM SCT250
     FM211400 14008KT P6SM SCT035 SCT250=



000
FTUS42 KMFL 210017 AAA
TAFFLL
TAF AMD
KFLL 210017Z 2100/2124 VRB03KT P6SM SCT250
     FM211400 14010KT P6SM SCT035 SCT250=



000
FTUS42 KMFL 210017 AAA
TAFMIA
TAF AMD
KMIA 210017Z 2100/2124 VRB03KT P6SM SCT250
     FM211400 13008KT P6SM SCT035 SCT250=



000
FTUS42 KMFL 210017 AAA
TAFFLL
TAF AMD
KFLL 210017Z 2100/2124 VRB03KT P6SM SCT250
     FM211400 14010KT P6SM SCT035 SCT250=



000
FTUS42 KMFL 210017 AAA
TAFAPF
TAF AMD
KAPF 210017Z 2100/2124 VRB04KT P6SM SCT250
     FM211400 13008KT P6SM SCT035 SCT250=



000
FTUS42 KMFL 210017 AAA
TAFMIA
TAF AMD
KMIA 210017Z 2100/2124 VRB03KT P6SM SCT250
     FM211400 13008KT P6SM SCT035 SCT250=



000
FTUS42 KMFL 210017 AAA
TAFPBI
TAF AMD
KPBI 210017Z 2100/2124 VRB03KT P6SM SCT250
     FM211400 14008KT P6SM SCT035 SCT250=



000
FTUS42 KMFL 202327
TAFFLL
TAF
KFLL 202327Z 2100/2124 13005KT P6SM SCT250
     FM211400 14010KT P6SM SCT035 SCT250=



000
FTUS42 KMFL 202327
TAFPBI
TAF
KPBI 202327Z 2100/2124 15005KT P6SM SCT250
     FM211400 14008KT P6SM SCT035 SCT250=



000
FTUS42 KMFL 202327
TAFMIA
TAF
KMIA 202327Z 2100/2124 13005KT P6SM SCT250
     FM211400 13008KT P6SM SCT035 SCT250=



000
FTUS42 KMFL 202327
TAFAPF
TAF
KAPF 202327Z 2100/2124 12006KT P6SM SCT250
     FM211400 13008KT P6SM SCT035 SCT250=



000
FTUS42 KMFL 202327
TAFPBI
TAF
KPBI 202327Z 2100/2124 15005KT P6SM SCT250
     FM211400 14008KT P6SM SCT035 SCT250=



000
FTUS42 KMFL 202327
TAFAPF
TAF
KAPF 202327Z 2100/2124 12006KT P6SM SCT250
     FM211400 13008KT P6SM SCT035 SCT250=



000
FTUS42 KMFL 202327
TAFFLL
TAF
KFLL 202327Z 2100/2124 13005KT P6SM SCT250
     FM211400 14010KT P6SM SCT035 SCT250=



000
FTUS42 KMFL 202327
TAFMIA
TAF
KMIA 202327Z 2100/2124 13005KT P6SM SCT250
     FM211400 13008KT P6SM SCT035 SCT250=



000
FTUS42 KMFL 202104 AAA
TAFPBI
TAF AMD
KPBI 202104Z 2021/2118 14008KT P6SM SCT035 SCT250
     FM210000 VRB03KT P6SM SCT250
     FM211400 15005KT P6SM BKN250=



000
FTUS42 KMFL 202104 AAA
TAFFLL
TAF AMD
KFLL 202104Z 2021/2118 14010KT P6SM SCT040 SCT250
     FM210000 VRB03KT P6SM SCT250
     FM211400 14007KT P6SM BKN250=



000
FTUS42 KMFL 202104 AAA
TAFPBI
TAF AMD
KPBI 202104Z 2021/2118 14008KT P6SM SCT035 SCT250
     FM210000 VRB03KT P6SM SCT250
     FM211400 15005KT P6SM BKN250=



000
FTUS42 KMFL 202104 AAA
TAFFLL
TAF AMD
KFLL 202104Z 2021/2118 14010KT P6SM SCT040 SCT250
     FM210000 VRB03KT P6SM SCT250
     FM211400 14007KT P6SM BKN250=



000
FTUS42 KMFL 202104 AAA
TAFMIA
TAF AMD
KMIA 202104Z 2021/2118 13008KT P6SM SCT045 SCT250
     FM210000 VRB03KT P6SM SCT250
     FM211400 13006KT P6SM BKN250=



000
FTUS42 KMFL 202104 AAB
TAFAPF
TAF AMD
KAPF 202104Z 2021/2118 19008KT P6SM SCT035
     FM210000 VRB03KT P6SM BKN250
     FM211400 11006KT P6SM BKN080=



000
FTUS42 KMFL 202104 AAB
TAFAPF
TAF AMD
KAPF 202104Z 2021/2118 19008KT P6SM SCT035
     FM210000 VRB03KT P6SM BKN250
     FM211400 11006KT P6SM BKN080=



000
FTUS42 KMFL 202104 AAA
TAFMIA
TAF AMD
KMIA 202104Z 2021/2118 13008KT P6SM SCT045 SCT250
     FM210000 VRB03KT P6SM SCT250
     FM211400 13006KT P6SM BKN250=



000
FTUS42 KMFL 201757 AAA
TAFAPF
TAF AMD
KAPF 201757Z 2018/2118 18007KT P6SM SCT035 SCT250
     FM202100 19008KT P6SM BKN120
     FM210000 VRB03KT P6SM BKN250
     FM211400 10006KT P6SM BKN100
     FM211500 12008KT P6SM BKN050=



000
FTUS42 KMFL 201757 AAA
TAFAPF
TAF AMD
KAPF 201757Z 2018/2118 18007KT P6SM SCT035 SCT250
     FM202100 19008KT P6SM BKN120
     FM210000 VRB03KT P6SM BKN250
     FM211400 10006KT P6SM BKN100
     FM211500 12008KT P6SM BKN050=



000
FTUS42 KMFL 201740
TAFFLL
TAF
KFLL 201740Z 2018/2118 14008KT P6SM SCT035 SCT250
     FM210000 VRB03KT P6SM SCT250
     FM210600 16004KT P6SM BKN250
     FM211200 14007KT P6SM BKN250=



000
FTUS42 KMFL 201740
TAFAPF
TAF
KAPF 201740Z 2018/2118 18007KT P6SM SCT035 SCT250
     FM210000 00000KT P6SM OVC120
     FM210600 VRB03KT P6SM BKN250
     FM211400 10006KT P6SM BKN100
     FM211500 12008KT P6SM BKN050=



000
FTUS42 KMFL 201740
TAFPBI
TAF
KPBI 201740Z 2018/2118 14008KT P6SM SCT035 SCT250
     FM210000 17004KT P6SM SCT250
     FM210600 VRB03KT P6SM BKN250
     FM211200 15005KT P6SM BKN250=



000
FTUS42 KMFL 201740
TAFMIA
TAF
KMIA 201740Z 2018/2118 14008KT P6SM SCT035 SCT250
     FM210000 14004KT P6SM SCT250
     FM210600 00000KT P6SM BKN250
     FM211200 13006KT P6SM BKN250=



000
FTUS42 KMFL 201740
TAFPBI
TAF
KPBI 201740Z 2018/2118 14008KT P6SM SCT035 SCT250
     FM210000 17004KT P6SM SCT250
     FM210600 VRB03KT P6SM BKN250
     FM211200 15005KT P6SM BKN250=



000
FTUS42 KMFL 201740
TAFAPF
TAF
KAPF 201740Z 2018/2118 18007KT P6SM SCT035 SCT250
     FM210000 00000KT P6SM OVC120
     FM210600 VRB03KT P6SM BKN250
     FM211400 10006KT P6SM BKN100
     FM211500 12008KT P6SM BKN050=



000
FTUS42 KMFL 201740
TAFFLL
TAF
KFLL 201740Z 2018/2118 14008KT P6SM SCT035 SCT250
     FM210000 VRB03KT P6SM SCT250
     FM210600 16004KT P6SM BKN250
     FM211200 14007KT P6SM BKN250=



000
FTUS42 KMFL 201740
TAFMIA
TAF
KMIA 201740Z 2018/2118 14008KT P6SM SCT035 SCT250
     FM210000 14004KT P6SM SCT250
     FM210600 00000KT P6SM BKN250
     FM211200 13006KT P6SM BKN250=



000
FTUS42 KMFL 201513 AAA
TAFPBI
TAF AMD
KPBI 201513Z 2015/2112 16006KT P6SM SCT250
     FM201700 14008KT P6SM SCT035 SCT250
     FM210000 15004KT P6SM SCT250
     FM210600 VRB03KT P6SM BKN250=



000
FTUS42 KMFL 201513 AAA
TAFFLL
TAF AMD
KFLL 201513Z 2015/2112 13006KT P6SM SCT250
     FM201700 13009KT P6SM SCT035 SCT250
     FM210000 VRB03KT P6SM SCT250
     FM210600 15004KT P6SM BKN250=



000
FTUS42 KMFL 201513 AAA
TAFMIA
TAF AMD
KMIA 201513Z 2015/2112 13005KT P6SM SCT250
     FM201700 13008KT P6SM SCT035 SCT250
     FM210000 13004KT P6SM SCT250
     FM210600 00000KT P6SM BKN250=



000
FTUS42 KMFL 201513 AAA
TAFPBI
TAF AMD
KPBI 201513Z 2015/2112 16006KT P6SM SCT250
     FM201700 14008KT P6SM SCT035 SCT250
     FM210000 15004KT P6SM SCT250
     FM210600 VRB03KT P6SM BKN250=



000
FTUS42 KMFL 201513 AAA
TAFAPF
TAF AMD
KAPF 201513Z 2015/2112 10006KT P6SM SCT250
     FM201700 21007KT P6SM SCT035 SCT250
     FM210000 00000KT P6SM SCT250
     FM210600 VRB03KT P6SM BKN250=



000
FTUS42 KMFL 201513 AAA
TAFAPF
TAF AMD
KAPF 201513Z 2015/2112 10006KT P6SM SCT250
     FM201700 21007KT P6SM SCT035 SCT250
     FM210000 00000KT P6SM SCT250
     FM210600 VRB03KT P6SM BKN250=



000
FTUS42 KMFL 201513 AAA
TAFFLL
TAF AMD
KFLL 201513Z 2015/2112 13006KT P6SM SCT250
     FM201700 13009KT P6SM SCT035 SCT250
     FM210000 VRB03KT P6SM SCT250
     FM210600 15004KT P6SM BKN250=



000
FTUS42 KMFL 201513 AAA
TAFMIA
TAF AMD
KMIA 201513Z 2015/2112 13005KT P6SM SCT250
     FM201700 13008KT P6SM SCT035 SCT250
     FM210000 13004KT P6SM SCT250
     FM210600 00000KT P6SM BKN250=



000
FTUS42 KMFL 201124
TAFAPF
TAF
KAPF 201124Z 2012/2112 00000KT P6SM SCT250
     FM201400 10006KT P6SM SCT250
     FM201700 21007KT P6SM SCT035 SCT250
     FM210000 00000KT P6SM SCT250
     FM210600 VRB03KT P6SM BKN250=



000
FTUS42 KMFL 201124
TAFPBI
TAF
KPBI 201124Z 2012/2112 00000KT P6SM FEW040 SCT250
     FM201400 16006KT P6SM SCT250
     FM201700 14008KT P6SM SCT035 SCT250
     FM210000 15004KT P6SM SCT250
     FM210600 VRB03KT P6SM BKN250=



000
FTUS42 KMFL 201124
TAFFLL
TAF
KFLL 201124Z 2012/2112 17003KT P6SM BKN035
     FM201400 13006KT P6SM SCT250
     FM201700 13009KT P6SM SCT035 SCT250
     FM210000 VRB03KT P6SM SCT250
     FM210600 15004KT P6SM BKN250=



000
FTUS42 KMFL 201124
TAFMIA
TAF
KMIA 201124Z 2012/2112 00000KT P6SM SKC
     FM201400 13005KT P6SM SCT250
     FM201700 13008KT P6SM SCT035 SCT250
     FM210000 13004KT P6SM SCT250
     FM210600 00000KT P6SM BKN250=



000
FTUS42 KMFL 201124
TAFMIA
TAF
KMIA 201124Z 2012/2112 00000KT P6SM SKC
     FM201400 13005KT P6SM SCT250
     FM201700 13008KT P6SM SCT035 SCT250
     FM210000 13004KT P6SM SCT250
     FM210600 00000KT P6SM BKN250=



000
FTUS42 KMFL 201124
TAFPBI
TAF
KPBI 201124Z 2012/2112 00000KT P6SM FEW040 SCT250
     FM201400 16006KT P6SM SCT250
     FM201700 14008KT P6SM SCT035 SCT250
     FM210000 15004KT P6SM SCT250
     FM210600 VRB03KT P6SM BKN250=



000
FTUS42 KMFL 201124
TAFAPF
TAF
KAPF 201124Z 2012/2112 00000KT P6SM SCT250
     FM201400 10006KT P6SM SCT250
     FM201700 21007KT P6SM SCT035 SCT250
     FM210000 00000KT P6SM SCT250
     FM210600 VRB03KT P6SM BKN250=



000
FTUS42 KMFL 201124
TAFFLL
TAF
KFLL 201124Z 2012/2112 17003KT P6SM BKN035
     FM201400 13006KT P6SM SCT250
     FM201700 13009KT P6SM SCT035 SCT250
     FM210000 VRB03KT P6SM SCT250
     FM210600 15004KT P6SM BKN250=



000
FTUS42 KMFL 200903 AAA
TAFMIA
TAF AMD
KMIA 200903Z 2009/2106 VRB03KT P6SM FEW035
     FM201400 13008KT P6SM SCT035 SCT250=



000
FTUS42 KMFL 200903 AAA
TAFAPF
TAF AMD
KAPF 200903Z 2009/2106 08002KT P6SM SCT250
     FM201400 12006KT P6SM SCT250
     FM201700 20008KT P6SM SCT035 SCT250
     FM210000 VRB03KT P6SM SCT250=



000
FTUS42 KMFL 200903 AAA
TAFPBI
TAF AMD
KPBI 200903Z 2009/2106 27003KT P6SM FEW030 BKN040
     FM201400 15007KT P6SM SCT035 SCT250=



000
FTUS42 KMFL 200903 AAA
TAFFLL
TAF AMD
KFLL 200903Z 2009/2106 VRB03KT P6SM SCT035
     FM201400 15008KT P6SM SCT035 SCT250=



000
FTUS42 KMFL 200903 AAA
TAFAPF
TAF AMD
KAPF 200903Z 2009/2106 08002KT P6SM SCT250
     FM201400 12006KT P6SM SCT250
     FM201700 20008KT P6SM SCT035 SCT250
     FM210000 VRB03KT P6SM SCT250=



000
FTUS42 KMFL 200903 AAA
TAFMIA
TAF AMD
KMIA 200903Z 2009/2106 VRB03KT P6SM FEW035
     FM201400 13008KT P6SM SCT035 SCT250=



000
FTUS42 KMFL 200903 AAA
TAFFLL
TAF AMD
KFLL 200903Z 2009/2106 VRB03KT P6SM SCT035
     FM201400 15008KT P6SM SCT035 SCT250=



000
FTUS42 KMFL 200903 AAA
TAFPBI
TAF AMD
KPBI 200903Z 2009/2106 27003KT P6SM FEW030 BKN040
     FM201400 15007KT P6SM SCT035 SCT250=



000
FTUS42 KMFL 200541
TAFFLL
TAF
KFLL 200541Z 2006/2106 14005KT P6SM FEW025 SCT250
     FM201400 15008KT P6SM SCT035 SCT250=



000
FTUS42 KMFL 200541
TAFAPF
TAF
KAPF 200541Z 2006/2106 07002KT P6SM SCT250
     FM201400 12006KT P6SM SCT250
     FM201700 20008KT P6SM SCT035 SCT250
     FM210000 VRB03KT P6SM SCT250=



000
FTUS42 KMFL 200541
TAFMIA
TAF
KMIA 200541Z 2006/2106 12003KT P6SM FEW030 SCT250
     FM201400 13008KT P6SM SCT035 SCT250=



000
FTUS42 KMFL 200541
TAFPBI
TAF
KPBI 200541Z 2006/2106 12007KT P6SM FEW028 BKN050
     FM200800 14004KT P6SM FEW025 SCT050 SCT250
     FM201400 15006KT P6SM SCT035 SCT250=



000
FTUS42 KMFL 200541
TAFFLL
TAF
KFLL 200541Z 2006/2106 14005KT P6SM FEW025 SCT250
     FM201400 15008KT P6SM SCT035 SCT250=



000
FTUS42 KMFL 200541
TAFAPF
TAF
KAPF 200541Z 2006/2106 07002KT P6SM SCT250
     FM201400 12006KT P6SM SCT250
     FM201700 20008KT P6SM SCT035 SCT250
     FM210000 VRB03KT P6SM SCT250=



000
FTUS42 KMFL 200541
TAFPBI
TAF
KPBI 200541Z 2006/2106 12007KT P6SM FEW028 BKN050
     FM200800 14004KT P6SM FEW025 SCT050 SCT250
     FM201400 15006KT P6SM SCT035 SCT250=



000
FTUS42 KMFL 200541
TAFMIA
TAF
KMIA 200541Z 2006/2106 12003KT P6SM FEW030 SCT250
     FM201400 13008KT P6SM SCT035 SCT250=



000
FTUS42 KMFL 200258 AAA
TAFMIA
TAF AMD
KMIA 200258Z 2003/2024 12004KT P6SM FEW030 BKN250
     FM201400 13008KT P6SM SCT035=



000
FTUS42 KMFL 200258 AAA
TAFPBI
TAF AMD
KPBI 200258Z 2003/2024 VRB04KT P6SM FEW030 SCT040 SCT250
     FM201400 15006KT P6SM SCT035=



000
FTUS42 KMFL 200258 AAA
TAFFLL
TAF AMD
KFLL 200258Z 2003/2024 13005KT P6SM FEW035 BKN300
     FM201400 15008KT P6SM SCT035=



000
FTUS42 KMFL 200258 AAA
TAFAPF
TAF AMD
KAPF 200258Z 2003/2024 07002KT P6SM FEW250
     FM201400 12006KT P6SM SCT250
     FM201700 20008KT P6SM SCT035=



000
FTUS42 KMFL 200258 AAA
TAFFLL
TAF AMD
KFLL 200258Z 2003/2024 13005KT P6SM FEW035 BKN300
     FM201400 15008KT P6SM SCT035=



000
FTUS42 KMFL 200258 AAA
TAFAPF
TAF AMD
KAPF 200258Z 2003/2024 07002KT P6SM FEW250
     FM201400 12006KT P6SM SCT250
     FM201700 20008KT P6SM SCT035=



000
FTUS42 KMFL 200258 AAA
TAFMIA
TAF AMD
KMIA 200258Z 2003/2024 12004KT P6SM FEW030 BKN250
     FM201400 13008KT P6SM SCT035=



000
FTUS42 KMFL 192334
TAFMIA
TAF
KMIA 192334Z 2000/2024 11008KT P6SM FEW035 SCT250
     FM200100 VRB03KT P6SM SCT250
     FM201400 13008KT P6SM SCT035=



000
FTUS42 KMFL 192334
TAFAPF
TAF
KAPF 192334Z 2000/2024 VRB03KT P6SM SCT250
     FM201400 12006KT P6SM SCT250
     FM201700 20008KT P6SM SCT035=



000
FTUS42 KMFL 192334
TAFFLL
TAF
KFLL 192334Z 2000/2024 13008KT P6SM FEW045 SCT250
     FM200100 13005KT P6SM SCT250
     FM201400 15008KT P6SM SCT035=



000
FTUS42 KMFL 192334
TAFPBI
TAF
KPBI 192334Z 2000/2024 09008KT P6SM SCT030 SCT250
     FM200100 VRB03KT P6SM SCT250
     FM201400 15006KT P6SM SCT035=



000
FTUS42 KMFL 192334
TAFFLL
TAF
KFLL 192334Z 2000/2024 13008KT P6SM FEW045 SCT250
     FM200100 13005KT P6SM SCT250
     FM201400 15008KT P6SM SCT035=



000
FTUS42 KMFL 192334
TAFMIA
TAF
KMIA 192334Z 2000/2024 11008KT P6SM FEW035 SCT250
     FM200100 VRB03KT P6SM SCT250
     FM201400 13008KT P6SM SCT035=



000
FTUS42 KMFL 192334
TAFAPF
TAF
KAPF 192334Z 2000/2024 VRB03KT P6SM SCT250
     FM201400 12006KT P6SM SCT250
     FM201700 20008KT P6SM SCT035=



000
FTUS42 KMFL 192334
TAFPBI
TAF
KPBI 192334Z 2000/2024 09008KT P6SM SCT030 SCT250
     FM200100 VRB03KT P6SM SCT250
     FM201400 15006KT P6SM SCT035=



000
FTUS42 KMFL 192118 AAA
TAFPBI
TAF AMD
KPBI 192118Z 1921/2018 08008KT P6SM SCT040
     FM200100 VRB03KT P6SM SKC
     FM201200 17005KT P6SM BKN250=



000
FTUS42 KMFL 192118 AAA
TAFFLL
TAF AMD
KFLL 192118Z 1921/2018 11008KT P6SM FEW040
     FM200100 14005KT P6SM SKC
     FM201200 16006KT P6SM BKN250=



000
FTUS42 KMFL 192118 AAA
TAFMIA
TAF AMD
KMIA 192118Z 1921/2018 11010KT P6SM FEW040
     FM200100 VRB03KT P6SM SKC
     FM201200 14005KT P6SM BKN250=



000
FTUS42 KMFL 192118 AAA
TAFFLL
TAF AMD
KFLL 192118Z 1921/2018 11008KT P6SM FEW040
     FM200100 14005KT P6SM SKC
     FM201200 16006KT P6SM BKN250=



000
FTUS42 KMFL 192118 AAA
TAFMIA
TAF AMD
KMIA 192118Z 1921/2018 11010KT P6SM FEW040
     FM200100 VRB03KT P6SM SKC
     FM201200 14005KT P6SM BKN250=



000
FTUS42 KMFL 192118 AAA
TAFPBI
TAF AMD
KPBI 192118Z 1921/2018 08008KT P6SM SCT040
     FM200100 VRB03KT P6SM SKC
     FM201200 17005KT P6SM BKN250=



000
FTUS42 KMFL 192118 AAA
TAFAPF
TAF AMD
KAPF 192118Z 1921/2018 28006KT P6SM SKC
     FM200100 VRB03KT P6SM SKC
     FM201200 11005KT P6SM SKC=



000
FTUS42 KMFL 191730
TAFFLL
TAF
KFLL 191730Z 1918/2018 11006KT P6SM SCT040
     FM200100 15004KT P6SM SKC
     FM201200 16006KT P6SM BKN250=



000
FTUS42 KMFL 191730
TAFPBI
TAF
KPBI 191730Z 1918/2018 10006KT P6SM SCT040
     FM200100 VRB03KT P6SM SKC
     FM201200 17004KT P6SM BKN250=



000
FTUS42 KMFL 191730
TAFAPF
TAF
KAPF 191730Z 1918/2018 20006KT P6SM SKC
     FM192100 VRB03KT P6SM SCT040
     FM200100 VRB03KT P6SM SKC
     FM201200 11005KT P6SM SKC=



000
FTUS42 KMFL 191730
TAFMIA
TAF
KMIA 191730Z 1918/2018 11006KT P6SM SCT040
     FM200100 VRB03KT P6SM SKC
     FM201200 14005KT P6SM BKN250=



000
FTUS42 KMFL 191730
TAFMIA
TAF
KMIA 191730Z 1918/2018 11006KT P6SM SCT040
     FM200100 VRB03KT P6SM SKC
     FM201200 14005KT P6SM BKN250=



000
FTUS42 KMFL 191730
TAFPBI
TAF
KPBI 191730Z 1918/2018 10006KT P6SM SCT040
     FM200100 VRB03KT P6SM SKC
     FM201200 17004KT P6SM BKN250=



000
FTUS42 KMFL 191730
TAFFLL
TAF
KFLL 191730Z 1918/2018 11006KT P6SM SCT040
     FM200100 15004KT P6SM SKC
     FM201200 16006KT P6SM BKN250=



000
FTUS42 KMFL 191730
TAFAPF
TAF
KAPF 191730Z 1918/2018 20006KT P6SM SKC
     FM192100 VRB03KT P6SM SCT040
     FM200100 VRB03KT P6SM SKC
     FM201200 11005KT P6SM SKC=



    US Dept of Commerce
    National Oceanic and Atmospheric Administration
    National Weather Service
    1325 East West Highway
    Silver Spring, MD 20910
    Page Author: NWS Internet Services Team
Disclaimer
Information Quality
Credits
Glossary
Privacy Policy
Freedom of Information Act (FOIA)
About Us
Career Opportunities